Time;durP1;ratioP1;P1;durP2;ratioP2;P2;SDS_P1;SDS_P2;PMS_P1;PMS_P2;Temp;Humidity;BMP_temperature;BMP_pressure;BME280_temperature;BME280_humidity;BME280_pressure;Samples;Min_cycle;Max_cycle;Signal;HPM_P1;HPM_P2
2023/10/31 00:01:49;;;;;;;2.47;2.27;;;12.50;99.90;12.60;98517.00;;;;4915813;28;93735;-68
2023/10/31 00:04:15;;;;;;;2.97;2.67;;;12.50;99.90;12.60;98501.00;;;;4910442;28;111499;-69
2023/10/31 00:06:41;;;;;;;2.23;2.03;;;12.80;99.90;12.60;98497.00;;;;4915028;28;92603;-68
2023/10/31 00:09:07;;;;;;;4.57;2.57;;;12.50;99.90;12.60;98484.00;;;;4911275;28;87671;-68
2023/10/31 00:11:33;;;;;;;3.47;2.50;;;12.60;99.90;12.60;98483.00;;;;4888537;28;87493;-68
2023/10/31 00:13:59;;;;;;;6.43;3.40;;;12.60;99.90;12.60;98486.00;;;;4914650;28;108963;-67
2023/10/31 00:16:24;;;;;;;3.33;2.63;;;12.50;99.90;12.60;98491.00;;;;4915720;28;108445;-68
2023/10/31 00:18:50;;;;;;;4.10;2.27;;;12.60;99.90;12.60;98480.00;;;;4918788;28;117563;-68
2023/10/31 00:21:16;;;;;;;3.40;2.13;;;12.60;99.90;12.60;98487.00;;;;4914825;28;87450;-68
2023/10/31 00:23:46;;;;;;;4.50;2.03;;;12.60;99.90;12.60;98485.00;;;;4914287;28;109714;-68
2023/10/31 00:26:11;;;;;;;2.67;2.33;;;12.60;99.90;12.60;98493.00;;;;4914240;28;87515;-68
2023/10/31 00:28:37;;;;;;;3.93;2.70;;;12.60;99.90;12.60;98503.00;;;;4895843;28;90634;-67
2023/10/31 00:31:11;;;;;;;2.43;2.13;;;12.80;99.90;12.50;98506.00;;;;4912878;28;119084;-67
2023/10/31 00:33:37;;;;;;;13.50;2.87;;;12.50;99.90;12.50;98497.00;;;;4914871;28;87785;-67
2023/10/31 00:36:04;;;;;;;2.53;1.80;;;12.50;99.90;12.50;98484.00;;;;4914792;28;87663;-67
2023/10/31 00:38:29;;;;;;;3.37;2.43;;;12.50;99.90;12.50;98478.00;;;;4914750;28;88008;-68
2023/10/31 00:40:55;;;;;;;3.33;2.07;;;12.50;99.90;12.50;98482.00;;;;4913646;28;88778;-67
2023/10/31 00:43:21;;;;;;;2.37;2.17;;;12.50;99.90;12.50;98482.00;;;;4916612;28;100830;-67
2023/10/31 00:45:46;;;;;;;3.03;2.27;;;12.50;99.90;12.50;98497.00;;;;4914240;28;109244;-66
2023/10/31 00:48:12;;;;;;;3.47;2.10;;;12.50;99.90;12.50;98490.00;;;;4911937;28;109269;-67
2023/10/31 00:50:38;;;;;;;3.67;2.67;;;12.50;99.90;12.50;98514.00;;;;4913261;28;100179;-67
2023/10/31 00:53:04;;;;;;;4.10;2.23;;;12.50;99.90;12.50;98519.00;;;;4913535;28;110186;-67
2023/10/31 00:55:29;;;;;;;4.40;2.40;;;12.50;99.90;12.40;98524.00;;;;4912729;28;108776;-68
2023/10/31 00:57:55;;;;;;;2.70;2.50;;;12.40;99.90;12.40;98522.00;;;;4914218;28;117579;-68
2023/10/31 01:00:21;;;;;;;3.80;2.33;;;12.40;99.90;12.30;98514.00;;;;4916358;28;115564;-68
2023/10/31 01:02:46;;;;;;;4.77;2.17;;;12.40;99.90;12.30;98516.00;;;;4916544;28;87719;-67
2023/10/31 01:05:12;;;;;;;3.27;2.20;;;12.30;99.90;12.30;98507.00;;;;4914286;28;107506;-66
2023/10/31 01:07:38;;;;;;;6.30;2.33;;;12.30;99.90;12.30;98513.00;;;;4915711;28;116978;-67
2023/10/31 01:10:04;;;;;;;6.40;3.00;;;12.30;99.90;12.30;98501.00;;;;4915726;28;116911;-67
2023/10/31 01:12:30;;;;;;;2.03;1.83;;;12.40;99.90;12.30;98503.00;;;;4912524;28;98164;-67
2023/10/31 01:14:56;;;;;;;2.73;1.97;;;12.30;99.90;12.30;98504.00;;;;4915714;28;87789;-67
2023/10/31 01:17:22;;;;;;;1.67;1.57;;;12.30;99.90;12.30;98501.00;;;;4912263;28;107931;-66
2023/10/31 01:19:48;;;;;;;2.33;2.07;;;12.30;99.90;12.30;98498.00;;;;4910801;28;95880;-67
2023/10/31 01:22:13;;;;;;;5.33;2.70;;;12.30;99.90;12.30;98495.00;;;;4914180;28;98685;-67
2023/10/31 01:24:39;;;;;;;2.33;2.10;;;12.30;99.90;12.30;98502.00;;;;4885706;28;108880;-66
2023/10/31 01:27:05;;;;;;;2.80;1.60;;;12.30;99.90;12.30;98494.00;;;;4912910;28;115799;-67
2023/10/31 01:29:30;;;;;;;3.40;2.43;;;12.30;99.90;12.30;98486.00;;;;4893108;28;87921;-67
2023/10/31 01:31:56;;;;;;;3.33;2.13;;;12.30;99.90;12.30;98472.00;;;;4911002;28;110648;-67
2023/10/31 01:34:22;;;;;;;2.50;2.20;;;12.40;99.90;12.30;98473.00;;;;4911491;28;109462;-67
2023/10/31 01:36:48;;;;;;;1.90;1.80;;;12.40;99.90;12.30;98472.00;;;;4911618;28;89360;-67
2023/10/31 01:39:13;;;;;;;1.70;1.53;;;12.40;99.90;12.30;98465.00;;;;4912014;28;88165;-68
2023/10/31 01:41:42;;;;;;;3.47;2.60;;;12.50;99.90;12.30;98469.00;;;;4910585;28;98429;-67
2023/10/31 01:44:08;;;;;;;3.97;2.77;;;12.40;99.90;12.30;98460.00;;;;4911974;28;87301;-68
2023/10/31 01:46:34;;;;;;;2.43;2.23;;;12.40;99.90;12.30;98455.00;;;;4909753;28;108037;-68
2023/10/31 01:49:00;;;;;;;2.90;2.17;;;12.40;99.90;12.40;98449.00;;;;4896920;28;89566;-69
2023/10/31 01:51:27;;;;;;;4.27;2.53;;;12.40;99.90;12.40;98439.00;;;;4913066;28;87761;-70
2023/10/31 01:53:53;;;;;;;3.50;2.70;;;12.40;99.90;12.40;98450.00;;;;4892772;28;107675;-70
2023/10/31 01:56:20;;;;;;;2.40;2.20;;;12.40;99.90;12.40;98443.00;;;;4893329;28;88115;-71
2023/10/31 01:58:47;;;;;;;6.37;3.07;;;12.40;99.90;12.40;98426.00;;;;4890461;28;109175;-71
2023/10/31 02:01:13;;;;;;;4.27;2.87;;;12.40;99.90;12.40;98436.00;;;;4896327;28;110909;-73
2023/10/31 02:03:38;;;;;;;4.30;1.60;;;12.40;99.90;12.40;98430.00;;;;4909284;28;88115;-73
2023/10/31 02:06:04;;;;;;;3.57;2.43;;;12.40;99.90;12.40;98429.00;;;;4910900;28;88693;-74
2023/10/31 02:08:30;;;;;;;2.50;2.30;;;13.20;99.90;12.40;98422.00;;;;4896851;28;88427;-73
2023/10/31 02:10:56;;;;;;;3.73;2.50;;;12.40;99.90;12.40;98419.00;;;;4910843;28;110896;-73
2023/10/31 02:13:22;;;;;;;2.33;1.77;;;12.40;99.90;12.40;98420.00;;;;4896618;28;102067;-73
2023/10/31 02:15:48;;;;;;;3.40;2.63;;;12.40;99.90;12.40;98414.00;;;;4914664;28;104691;-71
2023/10/31 02:18:15;;;;;;;4.63;3.33;;;12.50;99.90;12.50;98425.00;;;;4913327;28;88108;-72
2023/10/31 02:20:41;;;;;;;3.10;2.47;;;12.40;99.90;12.50;98424.00;;;;4881448;28;88014;-72
2023/10/31 02:23:06;;;;;;;3.07;2.77;;;12.50;99.90;12.50;98425.00;;;;4909218;28;87171;-71
2023/10/31 02:25:32;;;;;;;3.53;2.63;;;12.50;99.90;12.50;98421.00;;;;4903485;28;117202;-72
2023/10/31 02:27:58;;;;;;;3.70;2.90;;;12.50;99.90;12.50;98427.00;;;;4913216;28;98066;-71
2023/10/31 02:30:24;;;;;;;4.40;2.87;;;12.10;99.90;12.50;98430.00;;;;4909947;28;89200;-73
2023/10/31 02:32:50;;;;;;;5.10;2.67;;;12.50;99.90;12.50;98435.00;;;;4914939;28;102588;-72
2023/10/31 02:35:17;;;;;;;3.87;2.53;;;12.50;99.90;12.50;98425.00;;;;4909363;28;118185;-71
2023/10/31 02:37:44;;;;;;;3.00;2.70;;;12.50;99.90;12.60;98431.00;;;;4911154;28;87751;-70
2023/10/31 02:40:11;;;;;;;2.77;2.57;;;12.60;99.90;12.60;98444.00;;;;4912321;28;87965;-71
2023/10/31 02:42:36;;;;;;;6.43;3.07;;;12.60;99.90;12.60;98431.00;;;;4911614;28;101978;-70
2023/10/31 02:45:03;;;;;;;5.87;3.60;;;12.60;99.90;12.60;98435.00;;;;4905383;28;116519;-71
2023/10/31 02:47:29;;;;;;;3.90;2.70;;;12.60;99.90;12.60;98449.00;;;;4913388;28;92594;-71
2023/10/31 02:49:55;;;;;;;3.03;2.60;;;12.60;99.90;12.60;98444.00;;;;4910878;28;88043;-70
2023/10/31 02:52:20;;;;;;;5.87;3.20;;;12.60;99.90;12.60;98446.00;;;;4909665;28;109222;-70
2023/10/31 02:54:46;;;;;;;6.33;3.53;;;12.60;99.90;12.60;98439.00;;;;4913247;28;117563;-69
2023/10/31 02:57:12;;;;;;;5.27;3.77;;;12.60;99.90;12.70;98456.00;;;;4917204;28;118368;-71
2023/10/31 02:59:37;;;;;;;7.10;4.73;;;11.90;99.90;12.70;98463.00;;;;4913098;28;110190;-71
2023/10/31 03:02:03;;;;;;;8.27;4.80;;;12.70;99.90;12.70;98466.00;;;;4911066;28;104578;-70
2023/10/31 03:04:29;;;;;;;9.07;4.47;;;12.70;99.90;12.80;98458.00;;;;4914140;28;116920;-69
2023/10/31 03:06:55;;;;;;;8.40;5.77;;;12.80;99.90;12.80;98467.00;;;;4912129;28;117129;-71
2023/10/31 03:09:20;;;;;;;6.43;4.73;;;12.80;99.90;12.90;98461.00;;;;4904423;28;110109;-70
2023/10/31 03:11:46;;;;;;;6.70;6.00;;;12.80;99.90;12.90;98460.00;;;;4911973;28;107846;-69
2023/10/31 03:14:12;;;;;;;7.53;5.77;;;12.90;99.90;12.90;98456.00;;;;4910256;28;120015;-69
2023/10/31 03:16:38;;;;;;;6.70;4.93;;;12.90;99.90;13.00;98454.00;;;;4909650;28;87586;-68
2023/10/31 03:19:04;;;;;;;9.33;5.33;;;12.90;99.90;13.00;98461.00;;;;4910439;28;88425;-70
2023/10/31 03:21:30;;;;;;;9.40;5.53;;;13.00;99.90;13.00;98453.00;;;;4884711;28;88097;-70
2023/10/31 03:23:56;;;;;;;5.93;5.27;;;13.00;99.90;13.00;98459.00;;;;4914188;28;87595;-70
2023/10/31 03:26:22;;;;;;;6.60;4.70;;;12.90;99.90;13.00;98454.00;;;;4894491;28;106716;-69
2023/10/31 03:28:48;;;;;;;8.30;5.70;;;13.00;99.90;13.00;98457.00;;;;4897682;28;89086;-69
2023/10/31 03:31:14;;;;;;;8.77;5.40;;;13.00;99.90;13.00;98456.00;;;;4913340;28;89409;-69
2023/10/31 03:33:41;;;;;;;6.47;5.53;;;13.00;99.90;13.00;98455.00;;;;4917238;28;88150;-70
2023/10/31 03:36:08;;;;;;;9.33;5.77;;;13.00;99.90;13.00;98470.00;;;;4916029;28;88223;-70
2023/10/31 03:38:37;;;;;;;6.33;4.93;;;13.00;99.90;13.00;98470.00;;;;4918218;28;102360;-70
2023/10/31 03:41:03;;;;;;;7.97;5.73;;;12.80;99.90;12.90;98461.00;;;;4917892;28;88098;-70
2023/10/31 03:43:29;;;;;;;5.80;4.60;;;12.90;99.90;12.90;98460.00;;;;4913929;28;118387;-70
2023/10/31 03:45:55;;;;;;;7.57;5.03;;;12.90;99.90;12.90;98476.00;;;;4913121;28;118246;-69
2023/10/31 03:48:21;;;;;;;5.90;4.67;;;12.90;99.90;12.90;98470.00;;;;4913057;28;110847;-70
2023/10/31 03:50:46;;;;;;;7.47;4.53;;;12.90;99.90;12.90;98464.00;;;;4914208;28;87659;-71
2023/10/31 03:53:12;;;;;;;6.00;4.33;;;12.90;99.90;12.90;98468.00;;;;4913551;28;87979;-69
2023/10/31 03:55:38;;;;;;;4.97;4.03;;;12.90;99.90;12.90;98485.00;;;;4895575;28;88082;-69
2023/10/31 03:58:05;;;;;;;6.53;4.33;;;12.90;99.90;12.90;98466.00;;;;4895299;28;110425;-70
2023/10/31 04:00:31;;;;;;;4.80;4.30;;;12.90;99.90;12.90;98471.00;;;;4899340;28;87494;-68
2023/10/31 04:02:56;;;;;;;7.03;4.10;;;12.90;99.90;12.90;98477.00;;;;4896413;28;88829;-68
2023/10/31 04:05:22;;;;;;;4.97;3.77;;;12.90;99.90;12.90;98473.00;;;;4883023;28;87732;-67
2023/10/31 04:07:49;;;;;;;6.63;3.83;;;12.90;99.90;12.90;98473.00;;;;4911449;28;90071;-67
2023/10/31 04:10:15;;;;;;;4.73;3.57;;;12.90;99.90;12.90;98468.00;;;;4915907;28;88611;-68
2023/10/31 04:12:41;;;;;;;9.43;4.40;;;12.90;99.90;12.90;98467.00;;;;4908832;28;109070;-68
2023/10/31 04:15:08;;;;;;;6.47;3.87;;;12.90;99.90;12.90;98462.00;;;;4915109;28;102700;-68
2023/10/31 04:17:35;;;;;;;4.83;3.70;;;12.60;99.90;12.80;98460.00;;;;4914909;28;88111;-68
2023/10/31 04:20:01;;;;;;;5.03;3.60;;;12.80;99.90;12.90;98465.00;;;;4912785;28;87903;-67
2023/10/31 04:22:27;;;;;;;4.60;3.40;;;12.90;99.90;12.80;98458.00;;;;4915868;28;106852;-68
2023/10/31 04:24:52;;;;;;;5.33;3.57;;;12.80;99.90;12.80;98457.00;;;;4912581;28;89007;-68
2023/10/31 04:27:18;;;;;;;4.90;4.10;;;12.80;99.90;12.80;98442.00;;;;4894658;28;109768;-69
2023/10/31 04:29:45;;;;;;;5.93;4.00;;;12.80;99.90;12.80;98440.00;;;;4913883;28;106277;-66
2023/10/31 04:32:11;;;;;;;4.47;3.53;;;12.80;99.90;12.80;98442.00;;;;4916112;28;93216;-68
2023/10/31 04:34:36;;;;;;;3.80;3.27;;;12.80;99.90;12.80;98434.00;;;;4910097;28;90250;-68
2023/10/31 04:37:02;;;;;;;6.07;4.03;;;12.80;99.90;12.80;98438.00;;;;4911467;28;92301;-68
2023/10/31 04:39:28;;;;;;;3.93;3.20;;;12.80;99.90;12.80;98429.00;;;;4911568;28;109232;-69
2023/10/31 04:41:53;;;;;;;6.37;2.97;;;12.70;99.90;12.80;98443.00;;;;4913955;28;116391;-69
2023/10/31 04:44:19;;;;;;;4.43;2.47;;;13.00;99.90;12.80;98457.00;;;;4894246;28;87756;-69
2023/10/31 04:46:45;;;;;;;5.03;2.53;;;12.80;99.90;12.80;98458.00;;;;4892355;28;87708;-69
2023/10/31 04:49:10;;;;;;;4.00;3.13;;;12.80;99.90;12.80;98450.00;;;;4915665;28;108373;-68
2023/10/31 04:51:37;;;;;;;3.70;3.13;;;12.80;99.90;12.80;98455.00;;;;4917748;28;118278;-68
2023/10/31 04:54:04;;;;;;;3.80;2.87;;;12.80;99.90;12.80;98458.00;;;;4914325;28;87913;-69
2023/10/31 04:56:30;;;;;;;3.43;2.90;;;12.80;99.90;12.80;98462.00;;;;4897631;28;89026;-69
2023/10/31 04:58:56;;;;;;;6.60;3.47;;;12.90;99.90;12.80;98466.00;;;;4915953;28;99399;-70
2023/10/31 05:01:22;;;;;;;3.73;3.20;;;12.70;99.90;12.80;98465.00;;;;4891154;28;107290;-68
2023/10/31 05:03:48;;;;;;;4.83;2.83;;;12.80;99.90;12.80;98477.00;;;;4908159;28;118944;-69
2023/10/31 05:06:20;;;;;;;4.40;2.77;;;12.70;99.90;12.80;98480.00;;;;4915136;28;87606;-69
2023/10/31 05:08:46;;;;;;;5.17;3.03;;;12.70;99.90;12.80;98485.00;;;;4894137;28;87722;-68
2023/10/31 05:11:19;;;;;;;2.73;2.53;;;12.80;99.90;12.80;98487.00;;;;4910767;28;110255;-68
2023/10/31 05:13:45;;;;;;;3.00;2.60;;;12.80;99.90;12.80;98497.00;;;;4890671;28;99804;-68
2023/10/31 05:16:14;;;;;;;4.77;3.07;;;12.80;99.90;12.80;98489.00;;;;4862497;28;1479939;-68
2023/10/31 05:18:39;;;;;;;3.27;2.40;;;12.80;99.90;12.90;98497.00;;;;4912095;28;88258;-68
2023/10/31 05:21:05;;;;;;;2.60;2.37;;;12.80;99.90;12.80;98496.00;;;;4912218;28;89533;-68
2023/10/31 05:23:31;;;;;;;3.67;2.93;;;12.90;99.90;12.90;98503.00;;;;4916291;28;88073;-68
2023/10/31 05:25:57;;;;;;;3.20;2.50;;;12.90;99.90;12.90;98500.00;;;;4913429;28;102253;-68
2023/10/31 05:28:23;;;;;;;3.80;2.40;;;12.90;99.90;12.90;98505.00;;;;4895959;28;87853;-69
2023/10/31 05:30:49;;;;;;;4.27;2.80;;;12.80;99.90;12.80;98496.00;;;;4904422;28;92104;-69
2023/10/31 05:33:16;;;;;;;4.10;3.13;;;12.80;99.90;12.90;98505.00;;;;4916722;28;88502;-68
2023/10/31 05:35:42;;;;;;;3.13;2.83;;;12.80;99.90;12.80;98502.00;;;;4915267;28;87754;-69
2023/10/31 05:38:07;;;;;;;4.07;2.73;;;12.80;99.90;12.80;98509.00;;;;4914286;28;96818;-69
2023/10/31 05:40:35;;;;;;;4.23;2.90;;;12.80;99.90;12.80;98504.00;;;;4891369;28;112375;-69
2023/10/31 05:43:02;;;;;;;1.83;1.70;;;12.90;99.90;12.80;98504.00;;;;4915314;28;89953;-69
2023/10/31 05:45:28;;;;;;;5.00;2.50;;;12.80;99.90;12.80;98505.00;;;;4911775;28;88591;-68
2023/10/31 05:47:53;;;;;;;2.67;2.47;;;12.90;99.90;12.80;98513.00;;;;4910090;28;100276;-68
2023/10/31 05:50:19;;;;;;;2.90;2.70;;;12.80;99.90;12.80;98520.00;;;;4912553;28;117255;-68
2023/10/31 05:52:45;;;;;;;3.13;2.27;;;12.80;99.90;12.80;98517.00;;;;4911437;28;112345;-68
2023/10/31 05:55:10;;;;;;;4.00;2.40;;;12.80;99.90;12.80;98535.00;;;;4911014;28;110203;-68
2023/10/31 05:57:36;;;;;;;3.30;2.83;;;12.80;99.90;12.80;98527.00;;;;4909724;28;109052;-68
2023/10/31 06:00:02;;;;;;;4.00;2.27;;;13.50;99.90;12.80;98549.00;;;;4910633;28;118011;-67
2023/10/31 06:02:28;;;;;;;2.40;1.97;;;12.80;99.90;12.90;98550.00;;;;4916233;28;87478;-68
2023/10/31 06:04:54;;;;;;;2.80;1.70;;;12.90;99.90;12.90;98556.00;;;;4914572;28;87891;-68
2023/10/31 06:07:20;;;;;;;2.67;2.07;;;12.90;99.90;12.90;98558.00;;;;4895219;28;108888;-68
2023/10/31 06:09:45;;;;;;;2.40;2.07;;;12.90;99.90;12.90;98567.00;;;;4913064;28;117870;-67
2023/10/31 06:12:11;;;;;;;2.43;1.80;;;12.90;99.90;12.90;98556.00;;;;4897061;28;119328;-68
2023/10/31 06:14:37;;;;;;;1.50;1.27;;;12.90;99.90;12.90;98569.00;;;;4911948;28;105383;-69
2023/10/31 06:17:04;;;;;;;3.10;1.60;;;12.90;99.90;12.90;98560.00;;;;4897145;28;107776;-68
2023/10/31 06:19:34;;;;;;;2.00;1.10;;;12.90;99.90;12.90;98566.00;;;;4913038;28;88128;-68
2023/10/31 06:21:59;;;;;;;1.40;1.20;;;12.90;99.90;12.90;98589.00;;;;4893213;28;87827;-67
2023/10/31 06:24:25;;;;;;;1.87;1.37;;;12.90;99.90;12.90;98591.00;;;;4912675;28;109161;-67
2023/10/31 06:26:51;;;;;;;1.20;0.90;;;12.90;99.90;12.90;98581.00;;;;4897448;28;108409;-67
2023/10/31 06:29:16;;;;;;;0.83;0.80;;;12.90;99.90;12.90;98589.00;;;;4909353;28;116668;-67
2023/10/31 06:31:42;;;;;;;2.50;1.33;;;12.90;99.90;12.90;98587.00;;;;4911847;28;117307;-67
2023/10/31 06:34:08;;;;;;;0.77;0.63;;;12.90;99.90;12.90;98599.00;;;;4909814;28;88597;-67
2023/10/31 06:36:33;;;;;;;3.93;1.00;;;12.90;99.90;12.90;98609.00;;;;4907884;28;108517;-66
2023/10/31 06:38:59;;;;;;;1.20;0.90;;;13.00;99.90;13.00;98615.00;;;;4913819;28;116840;-66
2023/10/31 06:41:25;;;;;;;0.50;0.50;;;13.00;99.90;13.00;98626.00;;;;4915430;28;117288;-66
2023/10/31 06:43:50;;;;;;;1.27;0.60;;;12.60;99.90;13.00;98627.00;;;;4910463;28;109835;-67
2023/10/31 06:46:16;;;;;;;0.97;0.60;;;13.00;99.90;13.00;98622.00;;;;4913981;28;107751;-67
2023/10/31 06:48:42;;;;;;;1.03;0.70;;;13.00;99.90;13.00;98626.00;;;;4897282;28;90289;-66
2023/10/31 06:51:07;;;;;;;0.63;0.60;;;13.00;99.90;13.10;98633.00;;;;4892332;28;89118;-66
2023/10/31 06:53:33;;;;;;;0.60;0.60;;;13.10;99.90;13.10;98625.00;;;;4908230;28;111029;-66
2023/10/31 06:55:59;;;;;;;0.43;0.43;;;13.10;99.90;13.10;98647.00;;;;4906816;28;99590;-67
2023/10/31 06:58:24;;;;;;;0.67;0.60;;;13.10;99.90;13.10;98649.00;;;;4878512;28;90979;-66
2023/10/31 07:00:51;;;;;;;0.70;0.70;;;13.10;99.90;13.10;98651.00;;;;4908104;28;118361;-66
2023/10/31 07:03:17;;;;;;;0.80;0.67;;;13.10;99.90;13.10;98657.00;;;;4877888;28;88138;-68
2023/10/31 07:05:43;;;;;;;0.67;0.50;;;13.10;99.90;13.10;98657.00;;;;4906405;28;88173;-66
2023/10/31 07:08:08;;;;;;;0.40;0.40;;;13.10;99.90;13.10;98664.00;;;;4906745;28;98334;-66
2023/10/31 07:10:34;;;;;;;0.73;0.40;;;13.10;99.90;13.10;98662.00;;;;4894473;28;91090;-67
2023/10/31 07:13:00;;;;;;;0.50;0.50;;;13.10;99.90;13.10;98654.00;;;;4909274;28;87825;-67
2023/10/31 07:15:26;;;;;;;0.60;0.57;;;13.10;99.90;13.00;98655.00;;;;4907597;28;101958;-67
2023/10/31 07:17:52;;;;;;;0.80;0.60;;;13.10;99.90;13.00;98668.00;;;;4906577;28;117344;-65
2023/10/31 07:20:18;;;;;;;0.47;0.40;;;13.00;99.90;12.90;98661.00;;;;4907247;28;118675;-66
2023/10/31 07:22:43;;;;;;;0.93;0.70;;;13.00;99.90;12.90;98666.00;;;;4912790;28;88998;-66
2023/10/31 07:25:09;;;;;;;0.37;0.23;;;12.90;99.90;12.90;98665.00;;;;4911186;28;91037;-67
2023/10/31 07:27:36;;;;;;;0.50;0.30;;;13.40;99.90;12.90;98677.00;;;;4907752;28;116767;-66
2023/10/31 07:30:05;;;;;;;1.00;0.40;;;12.90;99.90;12.90;98676.00;;;;4907537;28;87840;-66
2023/10/31 07:32:30;;;;;;;0.47;0.30;;;12.90;99.90;12.90;98666.00;;;;4906227;28;88127;-66
2023/10/31 07:34:57;;;;;;;0.67;0.57;;;12.90;99.90;13.00;98681.00;;;;4911098;28;95243;-66
2023/10/31 07:37:30;;;;;;;0.30;0.30;;;13.00;99.90;13.00;98687.00;;;;4291318;28;10001042;-63
2023/10/31 07:39:55;;;;;;;1.23;0.30;;;13.00;99.90;13.00;98689.00;;;;4907594;28;115377;-65
2023/10/31 07:42:21;;;;;;;0.23;0.23;;;13.10;99.90;13.10;98687.00;;;;4902595;28;115873;-65
2023/10/31 07:44:47;;;;;;;0.20;0.20;;;13.10;99.90;13.10;98693.00;;;;4903720;28;110751;-67
2023/10/31 07:47:12;;;;;;;0.20;0.20;;;13.10;99.90;13.10;98687.00;;;;4904782;28;98003;-66
2023/10/31 07:49:38;;;;;;;0.30;0.30;;;13.10;99.90;13.10;98694.00;;;;4904328;28;118007;-67
2023/10/31 07:52:04;;;;;;;0.40;0.30;;;13.10;99.90;13.10;98721.00;;;;4902255;28;111180;-66
2023/10/31 07:54:30;;;;;;;0.23;0.23;;;13.10;99.90;13.10;98713.00;;;;4906266;28;88035;-67
2023/10/31 07:56:56;;;;;;;0.60;0.30;;;13.20;99.90;13.20;98723.00;;;;4908390;28;108402;-67
2023/10/31 07:59:21;;;;;;;0.20;0.20;;;13.20;99.90;13.20;98724.00;;;;4907230;28;117621;-65
2023/10/31 08:01:48;;;;;;;0.20;0.20;;;13.20;99.90;13.20;98741.00;;;;4906287;28;117047;-66
2023/10/31 08:04:15;;;;;;;0.10;0.10;;;13.20;99.90;13.30;98742.00;;;;4908488;28;87082;-66
2023/10/31 08:06:40;;;;;;;0.33;0.30;;;13.20;99.90;13.30;98743.00;;;;4909339;28;87533;-67
2023/10/31 08:09:06;;;;;;;0.33;0.30;;;13.30;99.90;13.30;98744.00;;;;4908984;28;92469;-66
2023/10/31 08:11:34;;;;;;;0.30;0.30;;;13.30;99.90;13.40;98752.00;;;;4895492;28;88710;-66
2023/10/31 08:14:00;;;;;;;0.20;0.20;;;13.30;99.90;13.40;98755.00;;;;4909073;28;87783;-66
2023/10/31 08:16:26;;;;;;;0.37;0.30;;;13.40;99.90;13.40;98752.00;;;;4910339;28;87852;-67
2023/10/31 08:18:52;;;;;;;0.40;0.40;;;13.40;99.90;13.50;98753.00;;;;4886209;28;88698;-65
2023/10/31 08:21:18;;;;;;;0.30;0.27;;;13.40;99.90;13.50;98756.00;;;;4912250;28;88026;-67
2023/10/31 08:23:46;;;;;;;1.03;0.20;;;13.40;99.90;13.50;98757.00;;;;4907783;28;111664;-67
2023/10/31 08:26:12;;;;;;;0.60;0.37;;;13.50;99.90;13.50;98763.00;;;;4912549;28;87907;-66
2023/10/31 08:28:38;;;;;;;0.27;0.23;;;13.50;99.90;13.60;98767.00;;;;4910244;28;88404;-66
2023/10/31 08:31:04;;;;;;;0.30;0.30;;;14.00;99.90;13.60;98781.00;;;;4905295;28;108266;-67
2023/10/31 08:33:30;;;;;;;1.10;0.30;;;13.60;99.90;13.70;98769.00;;;;4914134;28;87984;-66
2023/10/31 08:35:55;;;;;;;0.70;0.30;;;13.60;99.90;14.00;98776.00;;;;4909823;28;90842;-68
2023/10/31 08:38:22;;;;;;;0.20;0.20;;;13.80;99.90;14.40;98770.00;;;;4911990;28;118686;-68
2023/10/31 08:40:49;;;;;;;0.40;0.35;;;14.10;99.90;14.80;98769.00;;;;4909506;28;88566;-67
2023/10/31 08:43:14;;;;;;;0.20;0.20;;;14.60;99.90;15.20;98775.00;;;;4907401;28;87866;-66
2023/10/31 08:45:40;;;;;;;0.30;0.30;;;15.00;99.90;15.50;98762.00;;;;4908290;28;107248;-66
2023/10/31 08:48:11;;;;;;;0.30;0.28;;;15.30;99.90;15.80;98777.00;;;;4887070;28;87856;-66
2023/10/31 08:50:37;;;;;;;0.55;0.20;;;15.60;99.90;16.00;98785.00;;;;4912510;28;115440;-68
2023/10/31 08:53:03;;;;;;;0.40;0.25;;;15.80;99.90;16.20;98773.00;;;;4905936;28;109648;-67
2023/10/31 08:55:29;;;;;;;0.20;0.20;;;16.10;99.90;16.30;98783.00;;;;4911951;28;87667;-66
2023/10/31 08:57:54;;;;;;;0.30;0.25;;;16.20;99.90;16.40;98762.00;;;;4907407;28;87741;-68
2023/10/31 09:00:20;;;;;;;0.43;0.25;;;16.40;99.90;16.50;98777.00;;;;4905387;28;117059;-67
2023/10/31 09:02:46;;;;;;;0.35;0.30;;;16.50;99.90;16.60;98813.00;;;;4894499;28;87917;-69
2023/10/31 09:05:12;;;;;;;0.75;0.40;;;16.60;99.90;16.70;98806.00;;;;4909581;28;88033;-67
2023/10/31 09:07:38;;;;;;;0.38;0.30;;;16.60;99.90;16.70;98805.00;;;;4890008;28;87898;-68
2023/10/31 09:10:05;;;;;;;0.45;0.20;;;16.70;99.90;16.60;98822.00;;;;4908822;28;93751;-69
2023/10/31 09:12:31;;;;;;;0.57;0.28;;;16.60;99.90;16.60;98827.00;;;;4888299;28;88067;-69
2023/10/31 09:14:56;;;;;;;0.10;0.10;;;16.60;99.90;16.70;98830.00;;;;4909299;28;100879;-68
2023/10/31 09:17:22;;;;;;;0.22;0.22;;;16.60;99.90;16.80;98836.00;;;;4907698;28;115659;-68
2023/10/31 09:19:48;;;;;;;0.30;0.30;;;16.70;99.90;17.00;98825.00;;;;4906300;28;116445;-69
2023/10/31 09:22:13;;;;;;;0.63;0.43;;;16.90;99.80;17.00;98838.00;;;;4905725;28;110560;-68
2023/10/31 09:24:40;;;;;;;0.32;0.32;;;17.00;99.20;16.80;98841.00;;;;4888654;28;109485;-67
2023/10/31 09:27:05;;;;;;;0.20;0.20;;;16.80;98.90;16.60;98858.00;;;;4908009;28;87932;-68
2023/10/31 09:29:31;;;;;;;0.17;0.17;;;16.70;98.40;16.30;98855.00;;;;4905015;28;118778;-68
2023/10/31 09:31:57;;;;;;;0.13;0.13;;;16.40;99.00;16.10;98857.00;;;;4887869;28;109961;-68
2023/10/31 09:34:23;;;;;;;1.10;0.20;;;16.20;99.30;16.10;98860.00;;;;4894558;28;87832;-68
2023/10/31 09:36:48;;;;;;;0.20;0.20;;;16.10;99.10;16.20;98863.00;;;;4874164;28;117233;-68
2023/10/31 09:39:14;;;;;;;0.10;0.10;;;16.10;99.30;16.40;98869.00;;;;4906540;28;88896;-67
2023/10/31 09:41:40;;;;;;;0.20;0.20;;;16.30;99.80;16.60;98863.00;;;;4905348;28;101592;-68
2023/10/31 09:44:06;;;;;;;1.83;0.35;;;16.40;99.90;16.80;98876.00;;;;4904696;28;109398;-69
2023/10/31 09:46:31;;;;;;;0.32;0.30;;;16.60;99.60;17.00;98882.00;;;;4908173;28;88568;-70
2023/10/31 09:48:57;;;;;;;0.10;0.10;;;16.80;99.50;17.30;98873.00;;;;4909434;28;117498;-70
2023/10/31 09:51:23;;;;;;;0.10;0.08;;;17.00;98.40;17.50;98867.00;;;;4908851;28;88217;-72
2023/10/31 09:53:51;;;;;;;0.10;0.10;;;17.30;97.10;17.50;98885.00;;;;4888946;28;108433;-69
2023/10/31 09:56:17;;;;;;;0.82;0.20;;;17.40;97.10;17.30;98882.00;;;;4889661;28;122350;-68
2023/10/31 09:58:43;;;;;;;0.32;0.32;;;17.30;95.90;17.10;98885.00;;;;4890270;28;88861;-69
2023/10/31 10:01:11;;;;;;;0.10;0.10;;;17.10;96.00;16.80;98895.00;;;;4908127;28;88077;-70
2023/10/31 10:03:37;;;;;;;0.20;0.20;;;16.80;95.90;16.50;98895.00;;;;4906485;28;89929;-68
2023/10/31 10:06:03;;;;;;;0.10;0.10;;;16.60;96.30;16.20;98896.00;;;;4890116;28;106013;-69
2023/10/31 10:08:29;;;;;;;0.20;0.10;;;16.30;96.40;16.10;98896.00;;;;4906760;28;87957;-68
2023/10/31 10:10:55;;;;;;;0.22;0.20;;;16.10;96.70;16.10;98891.00;;;;4906731;28;87728;-68
2023/10/31 10:13:21;;;;;;;0.00;0.00;;;16.00;97.20;16.10;98893.00;;;;4902713;28;111735;-69
2023/10/31 10:15:49;;;;;;;0.10;0.10;;;16.00;96.90;16.10;98898.00;;;;4908691;28;117503;-69
2023/10/31 10:18:32;;;;;;;0.10;0.10;;;16.00;97.10;16.30;98899.00;;;;4891650;28;87903;-69
2023/10/31 10:21:07;;;;;;;0.05;0.05;;;16.20;96.90;16.50;98910.00;;;;4896433;28;89389;-69
2023/10/31 10:23:33;;;;;;;0.20;0.20;;;16.40;96.80;16.60;98908.00;;;;4908502;28;87952;-68
2023/10/31 10:26:01;;;;;;;0.13;0.13;;;16.50;96.50;16.60;98903.00;;;;4909597;28;88256;-68
2023/10/31 10:28:29;;;;;;;0.00;0.00;;;16.50;95.10;16.50;98903.00;;;;4891607;28;104292;-70
2023/10/31 10:30:55;;;;;;;0.30;0.30;;;16.50;94.90;16.60;98912.00;;;;4886699;28;87157;-69
2023/10/31 10:33:22;;;;;;;0.45;0.30;;;16.50;94.80;16.70;98912.00;;;;4891726;28;87949;-69
2023/10/31 10:35:48;;;;;;;0.10;0.10;;;16.60;95.10;16.60;98910.00;;;;4909433;28;88525;-69
2023/10/31 10:38:18;;;;;;;0.10;0.10;;;16.60;94.80;16.50;98919.00;;;;4908106;28;117334;-69
2023/10/31 10:40:48;;;;;;;0.20;0.13;;;16.50;94.90;16.50;98905.00;;;;4906367;28;87638;-68
2023/10/31 10:43:22;;;;;;;0.30;0.20;;;16.40;94.90;16.50;98913.00;;;;4908988;28;87831;-68
2023/10/31 10:46:04;;;;;;;0.35;0.30;;;16.40;95.00;16.60;98917.00;;;;4909167;28;88604;-68